createdAt,value
2018-11-20T00:00:21.081Z,38.57
2018-11-20T00:03:08.097Z,38.58
2018-11-20T00:05:55.193Z,38.84
2018-11-20T00:08:38.016Z,39.02
2018-11-20T00:11:17.168Z,38.71
2018-11-20T00:14:08.060Z,38.35
2018-11-20T00:16:50.772Z,38.13
2018-11-20T00:19:42.250Z,38.62
2018-11-20T00:22:30.713Z,38.23
2018-11-20T00:25:28.026Z,38.56
2018-11-20T00:28:14.109Z,38.32
2018-11-20T00:30:56.327Z,38.78
2018-11-20T00:33:48.164Z,38.31
2018-11-20T00:36:39.450Z,38.64
2018-11-20T00:39:32.411Z,38.68
2018-11-20T00:42:27.907Z,38.67
2018-11-20T00:45:22.216Z,38.35
2018-11-20T00:48:09.150Z,38.82
2018-11-20T00:51:09.536Z,38.99
2018-11-20T00:54:01.002Z,38.69
2018-11-20T00:56:51.091Z,38.34
2018-11-20T00:59:38.714Z,38.86
2018-11-20T01:02:25.552Z,38.53
2018-11-20T01:05:13.375Z,39.20
2018-11-20T01:08:00.463Z,39.08
2018-11-20T01:10:47.592Z,38.90
2018-11-20T01:13:34.414Z,39.36
2018-11-20T01:16:35.390Z,39.75
2018-11-20T01:19:40.545Z,39.87
2018-11-20T01:22:28.827Z,39.89
2018-11-20T01:25:23.782Z,39.34
2018-11-20T01:28:24.737Z,39.09
2018-11-20T01:31:13.544Z,38.98
2018-11-20T01:34:01.919Z,38.92
2018-11-20T01:36:50.473Z,38.89
2018-11-20T01:39:45.392Z,38.68
2018-11-20T01:42:34.828Z,39.57
2018-11-20T01:45:29.115Z,39.40
2018-11-20T01:48:23.092Z,40.23
2018-11-20T01:51:10.504Z,41.10
2018-11-20T01:53:59.325Z,40.53
2018-11-20T01:56:59.780Z,40.62
2018-11-20T01:59:50.769Z,40.61
2018-11-20T02:02:29.695Z,40.71
2018-11-20T02:05:22.609Z,40.47
2018-11-20T02:08:04.812Z,39.94
2018-11-20T02:10:52.202Z,39.65
2018-11-20T02:13:59.605Z,41.27
2018-11-20T02:16:51.064Z,40.91
2018-11-20T02:19:38.046Z,40.63
2018-11-20T02:22:16.407Z,40.14
2018-11-20T02:25:04.375Z,39.30
2018-11-20T02:27:52.518Z,39.26
2018-11-20T02:30:49.646Z,39.40
2018-11-20T02:33:33.360Z,40.14
2018-11-20T02:36:22.121Z,39.23
2018-11-20T02:39:10.815Z,39.40
2018-11-20T02:42:03.944Z,39.29
2018-11-20T02:44:50.879Z,39.46
2018-11-20T02:47:38.545Z,39.65
2018-11-20T02:50:31.552Z,39.74
2018-11-20T02:53:31.927Z,40.29
2018-11-20T02:56:29.411Z,40.77
2018-11-20T02:59:21.654Z,40.14
2018-11-20T03:02:10.473Z,40.00
2018-11-20T03:04:57.393Z,41.22
2018-11-20T03:07:49.030Z,41.67
2018-11-20T03:10:37.821Z,41.26
2018-11-20T03:13:29.919Z,40.34
2018-11-20T03:16:17.154Z,40.02
2018-11-20T03:19:05.451Z,39.38
2018-11-20T03:21:43.248Z,39.45
2018-11-20T03:24:37.675Z,39.68
2018-11-20T03:27:35.160Z,39.67
2018-11-20T03:31:20.103Z,40.13
2018-11-20T03:34:16.927Z,42.07
2018-11-20T03:37:04.640Z,42.42
2018-11-20T03:40:11.028Z,42.75
2018-11-20T03:42:49.036Z,42.29
2018-11-20T03:45:49.919Z,43.23
2018-11-20T03:48:57.930Z,42.69
2018-11-20T03:51:52.483Z,43.69
2018-11-20T03:54:59.342Z,44.41
2018-11-20T03:57:53.882Z,44.54
2018-11-20T04:00:50.301Z,43.73
2018-11-20T04:03:37.644Z,42.99
2018-11-20T04:06:16.553Z,43.22
2018-11-20T04:09:11.900Z,43.25
2018-11-20T04:12:04.101Z,42.60
2018-11-20T04:14:52.182Z,42.87
2018-11-20T04:17:44.529Z,42.88
2018-11-20T04:20:32.328Z,42.95
2018-11-20T04:23:36.034Z,43.50
2018-11-20T04:26:26.982Z,44.18
2018-11-20T04:29:17.931Z,42.64
2018-11-20T04:32:16.870Z,43.32
2018-11-20T04:35:24.469Z,43.25
2018-11-20T04:38:15.358Z,41.82
2018-11-20T04:41:02.707Z,42.48
2018-11-20T04:44:06.436Z,42.00
2018-11-20T04:46:53.669Z,41.39
2018-11-20T04:49:43.739Z,41.28
2018-11-20T04:52:23.142Z,40.66
2018-11-20T04:55:12.384Z,40.50
2018-11-20T04:58:11.484Z,40.95
2018-11-20T05:01:05.594Z,40.78
2018-11-20T05:03:44.784Z,41.55
2018-11-20T05:06:39.397Z,41.24
2018-11-20T05:09:41.738Z,41.59
2018-11-20T05:12:30.084Z,42.50
2018-11-20T05:15:27.533Z,41.89
2018-11-20T05:18:16.242Z,41.88
2018-11-20T05:21:05.059Z,44.00
2018-11-20T05:23:42.728Z,42.78
2018-11-20T05:26:46.948Z,41.93
2018-11-20T05:29:34.241Z,41.29
2018-11-20T05:32:26.020Z,41.32
2018-11-20T05:35:07.073Z,40.84
2018-11-20T05:37:53.074Z,40.72
2018-11-20T05:41:00.209Z,40.81
2018-11-20T05:43:49.889Z,40.70
2018-11-20T05:46:36.598Z,41.55
2018-11-20T05:49:24.943Z,40.88
2018-11-20T05:52:13.739Z,40.58
2018-11-20T05:55:01.558Z,40.93
2018-11-20T05:57:49.820Z,40.82
2018-11-20T06:00:37.717Z,40.64
2018-11-20T06:03:39.188Z,40.62
2018-11-20T06:06:37.261Z,41.02
2018-11-20T06:09:46.023Z,41.07
2018-11-20T06:12:45.682Z,40.91
2018-11-20T06:15:32.955Z,40.84
2018-11-20T06:18:37.555Z,40.79
2018-11-20T06:21:31.645Z,40.68
2018-11-20T06:24:19.941Z,40.99
2018-11-20T06:27:08.802Z,41.87
2018-11-20T06:30:15.697Z,40.79
2018-11-20T06:33:02.552Z,41.83
2018-11-20T06:35:49.593Z,41.42
2018-11-20T06:38:37.359Z,41.50
2018-11-20T06:41:29.120Z,41.46
2018-11-20T06:44:16.015Z,40.92
2018-11-20T06:47:03.121Z,41.22
2018-11-20T06:49:54.430Z,41.78
2018-11-20T06:52:43.731Z,42.03
2018-11-20T06:55:50.465Z,41.49
2018-11-20T06:58:38.827Z,41.57
2018-11-20T07:01:27.599Z,41.73
2018-11-20T07:04:15.113Z,41.22
2018-11-20T07:07:02.144Z,41.70
2018-11-20T07:10:05.616Z,42.06
2018-11-20T07:12:57.394Z,41.71
2018-11-20T07:15:54.071Z,41.09
2018-11-20T07:18:40.972Z,40.93
2018-11-20T07:21:31.140Z,41.76
2018-11-20T07:24:18.877Z,41.62
2018-11-20T07:27:07.619Z,41.34
2018-11-20T07:30:14.340Z,41.27
2018-11-20T07:33:02.131Z,42.04
2018-11-20T07:36:03.333Z,41.46
2018-11-20T07:38:51.484Z,41.07
2018-11-20T07:41:38.598Z,40.98
2018-11-20T07:44:33.442Z,41.07
2018-11-20T07:47:20.806Z,41.22
2018-11-20T07:50:11.676Z,41.33
2018-11-20T07:53:12.269Z,40.77
2018-11-20T07:55:59.277Z,40.86
2018-11-20T07:58:46.862Z,40.51
2018-11-20T08:01:29.932Z,40.68
2018-11-20T08:04:27.512Z,41.16
2018-11-20T08:07:15.546Z,41.14
2018-11-20T08:10:04.349Z,41.07
2018-11-20T08:12:59.126Z,40.51
2018-11-20T08:15:51.754Z,40.35
2018-11-20T08:18:48.889Z,40.29
2018-11-20T08:21:36.286Z,40.62
2018-11-20T08:24:24.631Z,41.02
2018-11-20T08:27:12.917Z,40.81
2018-11-20T08:30:13.153Z,41.10
2018-11-20T08:33:00.571Z,41.21
2018-11-20T08:35:51.876Z,40.76
2018-11-20T08:38:45.541Z,40.83
2018-11-20T08:41:33.670Z,41.80
2018-11-20T08:44:33.358Z,41.99
2018-11-20T08:47:20.888Z,41.93
2018-11-20T08:50:11.846Z,41.55
2018-11-20T08:53:06.009Z,41.64
2018-11-20T08:56:04.484Z,41.18
2018-11-20T08:58:53.790Z,41.45
2018-11-20T09:01:44.795Z,41.15
2018-11-20T09:04:35.703Z,41.52
2018-11-20T09:07:39.642Z,41.37
2018-11-20T09:10:27.310Z,41.92
2018-11-20T09:13:15.519Z,42.09
2018-11-20T09:16:13.493Z,42.25
2018-11-20T09:19:01.081Z,42.29
2018-11-20T09:22:00.023Z,41.83
2018-11-20T09:24:46.854Z,42.23
2018-11-20T09:27:27.558Z,42.22
2018-11-20T09:30:16.293Z,41.32
2018-11-20T09:33:01.132Z,40.96
2018-11-20T09:36:10.387Z,41.29
2018-11-20T09:39:04.612Z,41.10
2018-11-20T09:41:53.514Z,40.54
2018-11-20T09:45:14.666Z,40.33
2018-11-20T09:48:01.558Z,39.67
2018-11-20T09:51:03.844Z,39.67
2018-11-20T09:53:51.633Z,40.42
2018-11-20T09:56:29.843Z,40.43
2018-11-20T09:59:24.044Z,40.67
2018-11-20T10:02:10.824Z,40.62
2018-11-20T10:04:50.612Z,40.92
2018-11-20T10:07:41.804Z,41.11
2018-11-20T10:10:30.163Z,40.91
2018-11-20T10:13:27.797Z,40.81
2018-11-20T10:16:26.102Z,41.18
2018-11-20T10:19:14.467Z,41.16
2018-11-20T10:22:11.395Z,40.48
2018-11-20T10:25:04.569Z,40.85
2018-11-20T10:27:52.044Z,40.75
2018-11-20T10:30:29.003Z,41.47
2018-11-20T10:33:14.003Z,41.94
2018-11-20T10:36:01.662Z,41.28
2018-11-20T10:38:53.122Z,40.51
2018-11-20T10:41:54.640Z,40.28
2018-11-20T10:44:40.830Z,40.61
2018-11-20T10:47:30.077Z,40.55
2018-11-20T10:50:17.448Z,41.63
2018-11-20T10:53:14.485Z,41.33
2018-11-20T10:56:01.433Z,41.00
2018-11-20T10:58:47.878Z,40.31
2018-11-20T11:01:22.785Z,40.84
2018-11-20T11:04:23.424Z,39.94
2018-11-20T11:07:01.749Z,39.57
2018-11-20T11:10:04.371Z,39.89
2018-11-20T11:12:52.118Z,40.33
2018-11-20T11:15:50.072Z,39.85
2018-11-20T11:18:47.758Z,39.61
2018-11-20T11:21:38.382Z,39.84
2018-11-20T11:24:25.805Z,39.58
2018-11-20T11:27:05.569Z,40.32
2018-11-20T11:30:06.190Z,39.84
2018-11-20T11:32:56.071Z,39.40
2018-11-20T11:35:56.887Z,39.68
2018-11-20T11:38:40.774Z,39.09
2018-11-20T11:41:29.104Z,39.88
2018-11-20T11:44:26.892Z,39.81
2018-11-20T11:47:14.691Z,40.04
2018-11-20T11:50:08.073Z,41.75
2018-11-20T11:52:55.296Z,40.79
2018-11-20T11:55:43.157Z,39.96
2018-11-20T11:58:30.982Z,39.84
2018-11-20T12:04:19.526Z,40.36
2018-11-20T12:07:08.485Z,40.17
2018-11-20T12:09:45.819Z,40.24
2018-11-20T12:12:43.288Z,39.74
2018-11-20T12:15:31.587Z,39.95
2018-11-20T12:18:20.591Z,39.84
2018-11-20T12:21:15.089Z,39.45
2018-11-20T12:24:22.539Z,40.59
2018-11-20T12:27:26.301Z,40.35
2018-11-20T12:30:15.630Z,40.70
2018-11-20T12:33:03.171Z,40.22
2018-11-20T12:35:50.678Z,40.21
2018-11-20T12:38:44.725Z,39.59
2018-11-20T12:41:37.216Z,40.12
2018-11-20T12:44:25.178Z,39.47
2018-11-20T12:47:24.580Z,39.22
2018-11-20T12:50:10.661Z,40.29
2018-11-20T12:52:57.484Z,40.64
2018-11-20T12:55:50.561Z,40.72
2018-11-20T12:58:55.665Z,40.66
2018-11-20T13:01:50.011Z,41.00
2018-11-20T13:04:43.886Z,40.59
2018-11-20T13:07:31.614Z,41.88
2018-11-20T13:10:20.959Z,41.56
2018-11-20T13:13:18.116Z,41.38
2018-11-20T13:16:12.586Z,41.64
2018-11-20T13:18:54.134Z,41.33
2018-11-20T13:21:45.832Z,40.56
2018-11-20T13:24:46.064Z,41.35
2018-11-20T13:27:40.514Z,41.23
2018-11-20T13:30:38.488Z,41.60
2018-11-20T13:33:36.030Z,41.34
2018-11-20T13:36:27.966Z,41.70
2018-11-20T13:39:25.450Z,42.84
2018-11-20T13:42:13.726Z,41.75
2018-11-20T13:45:04.685Z,41.59
2018-11-20T13:47:52.960Z,41.64
2018-11-20T13:50:40.900Z,41.62
2018-11-20T13:53:28.576Z,41.84
2018-11-20T13:56:17.776Z,41.60
2018-11-20T13:59:19.562Z,42.54
2018-11-20T14:02:13.523Z,42.83
2018-11-20T14:05:11.732Z,43.58
2018-11-20T14:08:01.542Z,42.55
2018-11-20T14:10:48.851Z,42.39
2018-11-20T14:13:45.787Z,42.74
2018-11-20T14:16:34.021Z,43.48
2018-11-20T14:19:28.438Z,43.25
2018-11-20T14:22:32.081Z,43.86
2018-11-20T14:25:23.934Z,43.39
2018-11-20T14:28:14.190Z,43.68
2018-11-20T14:31:04.155Z,43.86
2018-11-20T14:33:58.117Z,43.61
2018-11-20T14:36:45.867Z,43.19
2018-11-20T14:39:40.212Z,43.95
2018-11-20T14:42:40.849Z,43.56
2018-11-20T14:45:31.927Z,43.29
2018-11-20T14:48:18.836Z,42.67
2018-11-20T14:51:00.942Z,42.72
2018-11-20T14:53:56.821Z,42.88
2018-11-20T14:56:35.600Z,42.92
2018-11-20T14:59:24.410Z,43.02
2018-11-20T15:02:19.079Z,43.80
2018-11-20T15:05:07.917Z,44.18
2018-11-20T15:07:59.339Z,43.69
2018-11-20T15:10:43.449Z,43.70
2018-11-20T15:13:30.908Z,44.12
2018-11-20T15:16:27.767Z,43.54
2018-11-20T15:19:21.299Z,44.14
2018-11-20T15:22:10.045Z,44.08
2018-11-20T15:25:14.043Z,43.46
2018-11-20T15:28:11.397Z,42.95
2018-11-20T15:31:05.330Z,43.18
2018-11-20T15:33:55.644Z,44.55
2018-11-20T15:36:49.640Z,44.62
2018-11-20T15:39:37.972Z,44.14
2018-11-20T15:42:44.729Z,44.42
2018-11-20T15:45:29.478Z,44.40
2018-11-20T15:48:26.326Z,44.64
2018-11-20T15:51:13.234Z,44.67
2018-11-20T15:54:01.486Z,44.58
2018-11-20T15:56:48.848Z,45.19
2018-11-20T15:59:38.380Z,44.71
2018-11-20T16:02:28.417Z,44.33
2018-11-20T16:05:25.757Z,44.22
2018-11-20T16:08:27.500Z,44.44
2018-11-20T16:11:15.334Z,45.02
2018-11-20T16:14:12.995Z,45.01
2018-11-20T16:17:01.907Z,44.75
2018-11-20T16:19:55.566Z,45.43
2018-11-20T16:23:02.558Z,45.29
2018-11-20T16:25:52.889Z,45.05
2018-11-20T16:28:53.132Z,45.35
2018-11-20T16:31:47.093Z,45.36
2018-11-20T16:34:34.934Z,45.70
2018-11-20T16:37:29.929Z,45.69
2018-11-20T16:40:16.592Z,45.15
2018-11-20T16:43:13.528Z,45.70
2018-11-20T16:46:00.921Z,45.97
2018-11-20T16:48:47.061Z,46.40
2018-11-20T16:51:34.030Z,46.39
2018-11-20T16:54:22.408Z,45.79
2018-11-20T16:57:26.528Z,45.63
2018-11-20T17:00:14.329Z,46.57
2018-11-20T17:03:14.294Z,45.66
2018-11-20T17:06:10.563Z,45.00
2018-11-20T17:09:17.840Z,44.59
2018-11-20T17:12:09.708Z,45.94
2018-11-20T17:15:10.544Z,45.75
2018-11-20T17:17:58.523Z,46.02
2018-11-20T17:20:51.497Z,46.20
2018-11-20T17:23:39.978Z,45.97
2018-11-20T17:26:34.376Z,46.11
2018-11-20T17:29:25.408Z,46.65
2018-11-20T17:32:17.881Z,46.69
2018-11-20T17:35:19.400Z,46.78
2018-11-20T17:38:22.836Z,47.63
2018-11-20T17:41:09.782Z,47.86
2018-11-20T17:43:57.708Z,47.18
2018-11-20T17:46:45.405Z,47.58
2018-11-20T17:49:30.343Z,47.75
2018-11-20T17:52:34.216Z,48.27
2018-11-20T17:55:28.916Z,47.77
2018-11-20T17:58:09.599Z,47.53
2018-11-20T18:00:49.537Z,46.74
2018-11-20T18:03:49.866Z,46.67
2018-11-20T18:06:32.021Z,46.23
2018-11-20T18:09:12.626Z,45.87
2018-11-20T18:12:04.000Z,45.63
2018-11-20T18:14:58.351Z,46.25
2018-11-20T18:17:47.884Z,46.65
2018-11-20T18:20:34.520Z,46.18
2018-11-20T18:23:19.323Z,46.68
2018-11-20T18:26:06.590Z,46.60
2018-11-20T18:29:09.912Z,46.49
2018-11-20T18:32:15.159Z,47.76
2018-11-20T18:35:02.300Z,47.08
2018-11-20T18:37:50.881Z,47.73
2018-11-20T18:40:43.484Z,48.19
2018-11-20T18:43:33.608Z,47.13
2018-11-20T18:46:27.681Z,46.62
2018-11-20T18:49:15.131Z,46.77
2018-11-20T18:52:03.755Z,46.76
2018-11-20T18:54:50.628Z,46.23
2018-11-20T18:57:38.918Z,46.76
2018-11-20T19:00:37.184Z,46.61
2018-11-20T19:03:23.807Z,46.92
2018-11-20T19:06:12.621Z,47.13
2018-11-20T19:08:59.413Z,46.41
2018-11-20T19:11:51.824Z,47.06
2018-11-20T19:14:39.473Z,47.39
2018-11-20T19:17:31.375Z,46.95
2018-11-20T19:20:19.634Z,47.10
2018-11-20T19:23:22.834Z,47.47
2018-11-20T19:26:10.276Z,46.83
2018-11-20T19:28:53.823Z,46.54
2018-11-20T19:31:48.523Z,46.72
2018-11-20T19:34:52.895Z,46.32
2018-11-20T19:37:50.900Z,46.14
2018-11-20T19:40:37.502Z,45.78
2018-11-20T19:43:29.127Z,46.81
2018-11-20T19:46:26.398Z,47.09
2018-11-20T19:49:13.827Z,47.08
2018-11-20T19:52:03.183Z,46.65
2018-11-20T19:54:51.449Z,47.34
2018-11-20T19:57:39.765Z,47.41
2018-11-20T20:00:26.617Z,47.26
2018-11-20T20:03:14.227Z,47.93
2018-11-20T20:06:14.625Z,47.01
2018-11-20T20:09:04.110Z,46.60
2018-11-20T20:11:58.912Z,46.97
2018-11-20T20:14:48.360Z,46.92
2018-11-20T20:17:35.954Z,46.40
2018-11-20T20:20:26.760Z,46.38
2018-11-20T20:23:18.413Z,46.07
2018-11-20T20:26:13.585Z,46.42
2018-11-20T20:29:00.440Z,45.90
2018-11-20T20:31:47.663Z,46.15
2018-11-20T20:34:51.859Z,46.27
2018-11-20T20:37:49.828Z,46.60
2018-11-20T20:40:44.218Z,46.63
2018-11-20T20:43:38.634Z,46.54
2018-11-20T20:46:27.475Z,46.40
2018-11-20T20:49:34.577Z,46.89
2018-11-20T20:52:21.654Z,46.78
2018-11-20T20:55:10.158Z,46.51
2018-11-20T20:57:57.812Z,47.06
2018-11-20T21:00:50.374Z,46.74
2018-11-20T21:03:46.567Z,46.89
2018-11-20T21:06:34.092Z,47.74
2018-11-20T21:09:35.002Z,47.74
2018-11-20T21:12:33.990Z,47.39
2018-11-20T21:15:22.860Z,47.44
2018-11-20T21:18:15.480Z,48.40
2018-11-20T21:21:15.611Z,48.68
2018-11-20T21:24:01.703Z,49.15
2018-11-20T21:26:52.733Z,48.77
2018-11-20T21:29:41.369Z,49.37
2018-11-20T21:32:39.136Z,48.58
2018-11-20T21:35:21.773Z,48.34
2018-11-20T21:38:09.250Z,48.41
2018-11-20T21:40:57.548Z,48.32
2018-11-20T21:43:46.280Z,48.77
2018-11-20T21:46:30.539Z,48.92
2018-11-20T21:49:17.712Z,49.68
2018-11-20T21:52:09.280Z,48.51
2018-11-20T21:54:57.568Z,49.60
2018-11-20T21:57:44.456Z,49.38
2018-11-20T22:01:04.763Z,48.19
2018-11-20T22:04:01.924Z,48.49
2018-11-20T22:06:49.556Z,48.17
2018-11-20T22:09:39.333Z,49.29
2018-11-20T22:12:30.600Z,48.30
2018-11-20T22:15:21.885Z,48.53
2018-11-20T22:18:10.684Z,48.71
2018-11-20T22:21:03.770Z,48.26
2018-11-20T22:24:10.319Z,47.63
2018-11-20T22:27:07.436Z,47.89
2018-11-20T22:29:58.843Z,47.46
2018-11-20T22:32:56.999Z,47.67
2018-11-20T22:35:44.096Z,48.24
2018-11-20T22:38:39.983Z,49.20
2018-11-20T22:41:38.227Z,48.04
2018-11-20T22:44:25.747Z,48.48
2018-11-20T22:47:02.758Z,48.40
2018-11-20T22:49:44.640Z,48.32
2018-11-20T22:52:43.314Z,48.19
2018-11-20T22:55:23.070Z,47.96
2018-11-20T22:58:09.063Z,48.65
2018-11-20T23:00:48.506Z,47.58
2018-11-20T23:03:43.339Z,47.65
2018-11-20T23:06:40.479Z,48.19
2018-11-20T23:09:11.064Z,47.76
2018-11-20T23:11:40.541Z,48.03
2018-11-20T23:14:10.345Z,48.09
2018-11-20T23:16:41.270Z,48.12
2018-11-20T23:19:10.555Z,47.52
2018-11-20T23:21:39.899Z,47.48
2018-11-20T23:24:13.189Z,47.46
2018-11-20T23:26:44.604Z,47.38
2018-11-20T23:29:14.387Z,47.10
2018-11-20T23:31:43.655Z,46.82
2018-11-20T23:34:12.919Z,46.71
2018-11-20T23:36:43.528Z,47.28
2018-11-20T23:39:15.049Z,46.81
2018-11-20T23:41:44.342Z,47.57
2018-11-20T23:44:13.612Z,47.58
2018-11-20T23:46:44.246Z,48.35
2018-11-20T23:49:15.376Z,48.15
2018-11-20T23:51:43.735Z,47.63
2018-11-20T23:54:13.001Z,47.28
2018-11-20T23:56:42.239Z,47.98
2018-11-20T23:59:11.878Z,47.81
